sensor_id;sensor_type;location;lat;lon;timestamp;temperature;humidity
54884;DHT22;40776;52.880;6.016;2022-09-09T00:02:50;13.80;99.90
54884;DHT22;40776;52.880;6.016;2022-09-09T00:05:24;13.90;99.90
54884;DHT22;40776;52.880;6.016;2022-09-09T00:07:52;14.00;99.90
54884;DHT22;40776;52.880;6.016;2022-09-09T00:10:27;14.20;99.90
54884;DHT22;40776;52.880;6.016;2022-09-09T00:28:18;14.20;99.90
54884;DHT22;40776;52.880;6.016;2022-09-09T00:30:43;14.40;99.90
54884;DHT22;40776;52.880;6.016;2022-09-09T00:33:13;14.30;99.90
54884;DHT22;40776;52.880;6.016;2022-09-09T00:35:42;14.40;99.90
54884;DHT22;40776;52.880;6.016;2022-09-09T00:45:52;14.50;99.90
54884;DHT22;40776;52.880;6.016;2022-09-09T00:48:19;14.10;99.90
54884;DHT22;40776;52.880;6.016;2022-09-09T00:50:56;14.30;99.90
54884;DHT22;40776;52.880;6.016;2022-09-09T01:10:49;14.40;99.90
54884;DHT22;40776;52.880;6.016;2022-09-09T01:15:42;14.20;99.90
54884;DHT22;40776;52.880;6.016;2022-09-09T01:18:10;14.50;99.90
54884;DHT22;40776;52.880;6.016;2022-09-09T01:20:39;14.40;99.90
54884;DHT22;40776;52.880;6.016;2022-09-09T01:25:56;14.30;99.90
54884;DHT22;40776;52.880;6.016;2022-09-09T01:28:27;14.60;99.90
54884;DHT22;40776;52.880;6.016;2022-09-09T01:30:53;14.30;99.90
54884;DHT22;40776;52.880;6.016;2022-09-09T01:33:20;14.50;99.90
54884;DHT22;40776;52.880;6.016;2022-09-09T01:38:12;14.20;99.90
54884;DHT22;40776;52.880;6.016;2022-09-09T01:40:38;14.40;99.90
54884;DHT22;40776;52.880;6.016;2022-09-09T01:43:04;14.50;99.90
54884;DHT22;40776;52.880;6.016;2022-09-09T01:45:30;14.40;99.90
54884;DHT22;40776;52.880;6.016;2022-09-09T01:47:55;14.30;99.90
54884;DHT22;40776;52.880;6.016;2022-09-09T01:52:49;14.20;99.90
54884;DHT22;40776;52.880;6.016;2022-09-09T01:55:15;14.10;99.90
54884;DHT22;40776;52.880;6.016;2022-09-09T01:57:55;14.30;99.90
54884;DHT22;40776;52.880;6.016;2022-09-09T02:00:21;13.90;99.90
54884;DHT22;40776;52.880;6.016;2022-09-09T02:02:59;14.40;99.90
54884;DHT22;40776;52.880;6.016;2022-09-09T02:07:52;14.20;99.90
54884;DHT22;40776;52.880;6.016;2022-09-09T02:12:54;14.40;99.90
54884;DHT22;40776;52.880;6.016;2022-09-09T02:15:23;14.20;99.90
54884;DHT22;40776;52.880;6.016;2022-09-09T02:17:50;14.40;99.90
54884;DHT22;40776;52.880;6.016;2022-09-09T02:20:17;14.30;99.90
54884;DHT22;40776;52.880;6.016;2022-09-09T02:22:43;14.70;99.90
54884;DHT22;40776;52.880;6.016;2022-09-09T02:25:12;14.40;99.90
54884;DHT22;40776;52.880;6.016;2022-09-09T02:27:39;14.40;99.90
54884;DHT22;40776;52.880;6.016;2022-09-09T02:30:06;14.50;99.90
54884;DHT22;40776;52.880;6.016;2022-09-09T02:32:32;14.50;99.90
54884;DHT22;40776;52.880;6.016;2022-09-09T02:35:03;14.60;99.90
54884;DHT22;40776;52.880;6.016;2022-09-09T02:37:31;14.80;99.90
54884;DHT22;40776;52.880;6.016;2022-09-09T02:42:26;14.50;99.90
54884;DHT22;40776;52.880;6.016;2022-09-09T02:44:51;14.30;99.90
54884;DHT22;40776;52.880;6.016;2022-09-09T02:52:15;14.50;99.90
54884;DHT22;40776;52.880;6.016;2022-09-09T03:02:00;14.70;99.90
54884;DHT22;40776;52.880;6.016;2022-09-09T03:04:26;14.90;99.90
54884;DHT22;40776;52.880;6.016;2022-09-09T03:09:17;14.60;99.90
54884;DHT22;40776;52.880;6.016;2022-09-09T03:11:43;14.70;99.90
54884;DHT22;40776;52.880;6.016;2022-09-09T03:14:08;14.20;99.90
54884;DHT22;40776;52.880;6.016;2022-09-09T03:16:36;14.80;99.90
54884;DHT22;40776;52.880;6.016;2022-09-09T03:19:02;14.50;99.90
54884;DHT22;40776;52.880;6.016;2022-09-09T03:23:53;14.60;99.90
54884;DHT22;40776;52.880;6.016;2022-09-09T03:26:19;14.80;99.90
54884;DHT22;40776;52.880;6.016;2022-09-09T03:28:45;14.60;99.90
54884;DHT22;40776;52.880;6.016;2022-09-09T03:31:11;14.30;99.90
54884;DHT22;40776;52.880;6.016;2022-09-09T03:33:37;14.10;99.90
54884;DHT22;40776;52.880;6.016;2022-09-09T03:36:03;14.60;99.90
54884;DHT22;40776;52.880;6.016;2022-09-09T03:40:55;14.30;99.90
54884;DHT22;40776;52.880;6.016;2022-09-09T03:43:24;14.40;99.90
54884;DHT22;40776;52.880;6.016;2022-09-09T03:45:50;14.30;99.90
54884;DHT22;40776;52.880;6.016;2022-09-09T03:50:45;14.50;99.90
54884;DHT22;40776;52.880;6.016;2022-09-09T03:53:11;14.20;99.90
54884;DHT22;40776;52.880;6.016;2022-09-09T03:55:36;14.00;99.90
54884;DHT22;40776;52.880;6.016;2022-09-09T03:58:02;14.40;99.90
54884;DHT22;40776;52.880;6.016;2022-09-09T04:02:55;14.30;99.90
54884;DHT22;40776;52.880;6.016;2022-09-09T04:05:22;14.60;99.90
54884;DHT22;40776;52.880;6.016;2022-09-09T04:07:48;14.30;99.90
54884;DHT22;40776;52.880;6.016;2022-09-09T04:12:41;14.00;99.90
54884;DHT22;40776;52.880;6.016;2022-09-09T04:15:06;14.50;99.90
54884;DHT22;40776;52.880;6.016;2022-09-09T04:17:32;14.30;99.90
54884;DHT22;40776;52.880;6.016;2022-09-09T04:22:24;14.60;99.90
54884;DHT22;40776;52.880;6.016;2022-09-09T04:27:15;14.40;99.90
54884;DHT22;40776;52.880;6.016;2022-09-09T04:29:41;14.50;99.90
54884;DHT22;40776;52.880;6.016;2022-09-09T04:32:06;14.60;99.90
54884;DHT22;40776;52.880;6.016;2022-09-09T04:34:32;14.60;99.90
54884;DHT22;40776;52.880;6.016;2022-09-09T04:36:58;14.50;99.90
54884;DHT22;40776;52.880;6.016;2022-09-09T04:39:24;14.50;99.90
54884;DHT22;40776;52.880;6.016;2022-09-09T04:41:49;14.50;99.90
54884;DHT22;40776;52.880;6.016;2022-09-09T04:49:07;14.30;99.90
54884;DHT22;40776;52.880;6.016;2022-09-09T04:51:32;14.30;99.90
54884;DHT22;40776;52.880;6.016;2022-09-09T04:53:58;14.50;99.90
54884;DHT22;40776;52.880;6.016;2022-09-09T04:56:24;14.20;99.90
54884;DHT22;40776;52.880;6.016;2022-09-09T05:01:18;14.20;99.90
54884;DHT22;40776;52.880;6.016;2022-09-09T05:03:44;14.00;99.90
54884;DHT22;40776;52.880;6.016;2022-09-09T05:06:14;13.90;99.90
54884;DHT22;40776;52.880;6.016;2022-09-09T05:11:27;14.20;99.90
54884;DHT22;40776;52.880;6.016;2022-09-09T05:13:53;14.40;99.90
54884;DHT22;40776;52.880;6.016;2022-09-09T05:16:19;13.90;99.90
54884;DHT22;40776;52.880;6.016;2022-09-09T05:18:45;14.00;99.90
54884;DHT22;40776;52.880;6.016;2022-09-09T05:21:11;14.10;99.90
54884;DHT22;40776;52.880;6.016;2022-09-09T05:26:03;14.00;99.90
54884;DHT22;40776;52.880;6.016;2022-09-09T05:30:56;14.20;99.90
54884;DHT22;40776;52.880;6.016;2022-09-09T05:38:14;14.30;99.90
54884;DHT22;40776;52.880;6.016;2022-09-09T05:40:46;14.20;99.90
54884;DHT22;40776;52.880;6.016;2022-09-09T05:43:12;13.80;99.90
54884;DHT22;40776;52.880;6.016;2022-09-09T05:50:30;14.20;99.90
54884;DHT22;40776;52.880;6.016;2022-09-09T05:52:56;14.30;99.90
54884;DHT22;40776;52.880;6.016;2022-09-09T05:55:22;14.10;99.90
54884;DHT22;40776;52.880;6.016;2022-09-09T06:00:14;14.40;99.90
54884;DHT22;40776;52.880;6.016;2022-09-09T06:02:41;14.20;99.90
54884;DHT22;40776;52.880;6.016;2022-09-09T06:05:07;14.40;99.90
54884;DHT22;40776;52.880;6.016;2022-09-09T06:09:59;14.10;99.90
54884;DHT22;40776;52.880;6.016;2022-09-09T06:12:25;14.70;99.90
54884;DHT22;40776;52.880;6.016;2022-09-09T06:14:50;14.60;99.90
54884;DHT22;40776;52.880;6.016;2022-09-09T06:17:16;14.40;99.90
54884;DHT22;40776;52.880;6.016;2022-09-09T06:19:42;14.70;99.90
54884;DHT22;40776;52.880;6.016;2022-09-09T06:22:07;14.40;99.90
54884;DHT22;40776;52.880;6.016;2022-09-09T06:24:36;14.60;99.90
54884;DHT22;40776;52.880;6.016;2022-09-09T06:27:01;14.80;99.90
54884;DHT22;40776;52.880;6.016;2022-09-09T06:36:45;15.00;99.90
54884;DHT22;40776;52.880;6.016;2022-09-09T06:39:11;14.80;99.90
54884;DHT22;40776;52.880;6.016;2022-09-09T06:41:36;14.90;99.90
54884;DHT22;40776;52.880;6.016;2022-09-09T06:44:03;15.10;99.90
54884;DHT22;40776;52.880;6.016;2022-09-09T06:46:30;15.00;99.90
54884;DHT22;40776;52.880;6.016;2022-09-09T06:48:58;15.10;99.90
54884;DHT22;40776;52.880;6.016;2022-09-09T06:51:26;15.00;99.90
54884;DHT22;40776;52.880;6.016;2022-09-09T06:53:53;14.90;99.90
54884;DHT22;40776;52.880;6.016;2022-09-09T06:58:46;14.80;99.90
54884;DHT22;40776;52.880;6.016;2022-09-09T07:01:15;15.00;99.90
54884;DHT22;40776;52.880;6.016;2022-09-09T07:03:41;14.80;99.90
54884;DHT22;40776;52.880;6.016;2022-09-09T07:08:39;15.10;99.90
54884;DHT22;40776;52.880;6.016;2022-09-09T07:13:30;15.00;99.90
54884;DHT22;40776;52.880;6.016;2022-09-09T07:16:05;15.00;99.90
54884;DHT22;40776;52.880;6.016;2022-09-09T07:23:41;15.70;99.90
54884;DHT22;40776;52.880;6.016;2022-09-09T07:26:07;15.70;99.90
54884;DHT22;40776;52.880;6.016;2022-09-09T07:28:33;15.90;99.90
54884;DHT22;40776;52.880;6.016;2022-09-09T07:38:21;16.80;99.90
54884;DHT22;40776;52.880;6.016;2022-09-09T07:40:48;17.10;99.90
54884;DHT22;40776;52.880;6.016;2022-09-09T07:43:13;17.20;99.90
54884;DHT22;40776;52.880;6.016;2022-09-09T07:45:39;17.30;99.90
54884;DHT22;40776;52.880;6.016;2022-09-09T07:50:31;17.40;99.90
54884;DHT22;40776;52.880;6.016;2022-09-09T07:52:57;17.20;99.90
54884;DHT22;40776;52.880;6.016;2022-09-09T07:55:23;17.10;99.90
54884;DHT22;40776;52.880;6.016;2022-09-09T08:00:17;17.80;99.90
54884;DHT22;40776;52.880;6.016;2022-09-09T08:02:44;17.60;99.90
54884;DHT22;40776;52.880;6.016;2022-09-09T08:05:09;17.40;99.90
54884;DHT22;40776;52.880;6.016;2022-09-09T08:07:35;17.30;99.90
54884;DHT22;40776;52.880;6.016;2022-09-09T08:10:01;17.20;99.90
54884;DHT22;40776;52.880;6.016;2022-09-09T08:12:27;17.20;99.90
54884;DHT22;40776;52.880;6.016;2022-09-09T08:14:52;17.60;99.90
54884;DHT22;40776;52.880;6.016;2022-09-09T08:17:19;17.40;99.90
54884;DHT22;40776;52.880;6.016;2022-09-09T08:19:45;17.60;99.90
54884;DHT22;40776;52.880;6.016;2022-09-09T08:22:10;17.50;99.90
54884;DHT22;40776;52.880;6.016;2022-09-09T08:24:36;17.70;99.90
54884;DHT22;40776;52.880;6.016;2022-09-09T08:27:01;17.60;99.90
54884;DHT22;40776;52.880;6.016;2022-09-09T08:31:55;18.20;99.90
54884;DHT22;40776;52.880;6.016;2022-09-09T08:34:22;18.10;99.90
54884;DHT22;40776;52.880;6.016;2022-09-09T08:36:49;18.10;99.90
54884;DHT22;40776;52.880;6.016;2022-09-09T08:39:16;18.20;99.90
54884;DHT22;40776;52.880;6.016;2022-09-09T08:49:24;17.80;99.90
54884;DHT22;40776;52.880;6.016;2022-09-09T08:51:55;17.90;99.90
54884;DHT22;40776;52.880;6.016;2022-09-09T08:54:22;18.20;99.90
54884;DHT22;40776;52.880;6.016;2022-09-09T08:56:48;18.10;99.90
54884;DHT22;40776;52.880;6.016;2022-09-09T08:59:14;17.80;99.90
54884;DHT22;40776;52.880;6.016;2022-09-09T09:11:38;18.30;99.90
54884;DHT22;40776;52.880;6.016;2022-09-09T09:17:12;18.30;99.90
54884;DHT22;40776;52.880;6.016;2022-09-09T09:19:18;18.10;99.90
54884;DHT22;40776;52.880;6.016;2022-09-09T09:21:44;18.40;99.90
54884;DHT22;40776;52.880;6.016;2022-09-09T09:26:40;18.60;99.90
54884;DHT22;40776;52.880;6.016;2022-09-09T09:29:10;18.50;99.90
54884;DHT22;40776;52.880;6.016;2022-09-09T09:31:37;18.20;99.90
54884;DHT22;40776;52.880;6.016;2022-09-09T09:34:03;18.80;99.90
54884;DHT22;40776;52.880;6.016;2022-09-09T09:38:58;18.90;99.90
54884;DHT22;40776;52.880;6.016;2022-09-09T09:46:19;18.80;99.90
54884;DHT22;40776;52.880;6.016;2022-09-09T09:48:46;18.50;99.90
54884;DHT22;40776;52.880;6.016;2022-09-09T09:53:47;18.80;99.90
54884;DHT22;40776;52.880;6.016;2022-09-09T09:56:14;18.80;99.90
54884;DHT22;40776;52.880;6.016;2022-09-09T10:01:26;19.50;99.90
54884;DHT22;40776;52.880;6.016;2022-09-09T10:03:58;19.50;99.90
54884;DHT22;40776;52.880;6.016;2022-09-09T10:06:31;19.50;99.90
54884;DHT22;40776;52.880;6.016;2022-09-09T10:08:56;19.70;99.90
54884;DHT22;40776;52.880;6.016;2022-09-09T10:16:40;19.20;99.90
54884;DHT22;40776;52.880;6.016;2022-09-09T10:26:53;18.70;99.90
54884;DHT22;40776;52.880;6.016;2022-09-09T10:29:37;18.90;99.90
54884;DHT22;40776;52.880;6.016;2022-09-09T10:37:36;18.80;99.90
54884;DHT22;40776;52.880;6.016;2022-09-09T10:42:30;18.80;99.90
54884;DHT22;40776;52.880;6.016;2022-09-09T10:52:33;18.70;99.90
54884;DHT22;40776;52.880;6.016;2022-09-09T10:55:13;18.50;99.90
54884;DHT22;40776;52.880;6.016;2022-09-09T11:00:06;18.60;99.90
54884;DHT22;40776;52.880;6.016;2022-09-09T11:02:39;18.60;99.90
54884;DHT22;40776;52.880;6.016;2022-09-09T11:07:40;18.00;99.90
54884;DHT22;40776;52.880;6.016;2022-09-09T11:15:31;18.20;99.90
54884;DHT22;40776;52.880;6.016;2022-09-09T11:18:01;18.10;99.90
54884;DHT22;40776;52.880;6.016;2022-09-09T11:30:30;19.10;99.90
54884;DHT22;40776;52.880;6.016;2022-09-09T11:33:25;19.20;99.90
54884;DHT22;40776;52.880;6.016;2022-09-09T11:40:37;19.20;99.90
54884;DHT22;40776;52.880;6.016;2022-09-09T11:43:04;19.50;99.90
54884;DHT22;40776;52.880;6.016;2022-09-09T11:45:31;19.80;99.90
54884;DHT22;40776;52.880;6.016;2022-09-09T11:47:59;20.00;99.90
54884;DHT22;40776;52.880;6.016;2022-09-09T11:52:51;20.20;99.90
54884;DHT22;40776;52.880;6.016;2022-09-09T12:00:34;19.90;99.90
54884;DHT22;40776;52.880;6.016;2022-09-09T12:03:00;19.60;99.90
54884;DHT22;40776;52.880;6.016;2022-09-09T12:07:52;19.80;99.90
54884;DHT22;40776;52.880;6.016;2022-09-09T12:10:22;19.60;99.90
54884;DHT22;40776;52.880;6.016;2022-09-09T12:12:49;19.40;99.90
54884;DHT22;40776;52.880;6.016;2022-09-09T12:22:40;19.50;99.90
54884;DHT22;40776;52.880;6.016;2022-09-09T12:25:15;19.50;99.90
54884;DHT22;40776;52.880;6.016;2022-09-09T12:27:47;19.50;99.90
54884;DHT22;40776;52.880;6.016;2022-09-09T12:30:16;19.00;99.90
54884;DHT22;40776;52.880;6.016;2022-09-09T12:35:23;19.10;99.90
54884;DHT22;40776;52.880;6.016;2022-09-09T12:37:53;18.70;99.90
54884;DHT22;40776;52.880;6.016;2022-09-09T12:40:26;18.90;99.90
54884;DHT22;40776;52.880;6.016;2022-09-09T12:45:24;19.40;99.90
54884;DHT22;40776;52.880;6.016;2022-09-09T12:47:55;19.50;99.90
54884;DHT22;40776;52.880;6.016;2022-09-09T12:50:22;19.70;99.90
54884;DHT22;40776;52.880;6.016;2022-09-09T12:52:51;19.70;99.90
54884;DHT22;40776;52.880;6.016;2022-09-09T12:55:20;19.50;99.90
54884;DHT22;40776;52.880;6.016;2022-09-09T12:57:47;19.60;99.90
54884;DHT22;40776;52.880;6.016;2022-09-09T13:00:19;19.30;99.90
54884;DHT22;40776;52.880;6.016;2022-09-09T13:02:50;19.50;99.90
54884;DHT22;40776;52.880;6.016;2022-09-09T13:05:17;19.20;99.90
54884;DHT22;40776;52.880;6.016;2022-09-09T13:07:43;19.50;99.90
54884;DHT22;40776;52.880;6.016;2022-09-09T13:10:12;19.70;99.90
54884;DHT22;40776;52.880;6.016;2022-09-09T13:12:38;19.90;99.90
54884;DHT22;40776;52.880;6.016;2022-09-09T13:17:30;20.00;99.90
54884;DHT22;40776;52.880;6.016;2022-09-09T13:19:56;20.00;99.90
54884;DHT22;40776;52.880;6.016;2022-09-09T13:22:30;19.80;99.90
54884;DHT22;40776;52.880;6.016;2022-09-09T13:27:37;20.50;99.90
54884;DHT22;40776;52.880;6.016;2022-09-09T13:32:32;20.20;99.90
54884;DHT22;40776;52.880;6.016;2022-09-09T13:35:00;20.20;99.90
54884;DHT22;40776;52.880;6.016;2022-09-09T13:37:38;20.10;99.90
54884;DHT22;40776;52.880;6.016;2022-09-09T13:40:06;19.60;99.90
54884;DHT22;40776;52.880;6.016;2022-09-09T13:42:41;19.90;99.90
54884;DHT22;40776;52.880;6.016;2022-09-09T13:45:18;20.10;99.90
54884;DHT22;40776;52.880;6.016;2022-09-09T13:47:45;20.60;99.90
54884;DHT22;40776;52.880;6.016;2022-09-09T13:50:23;20.70;99.90
54884;DHT22;40776;52.880;6.016;2022-09-09T13:52:49;20.60;99.90
54884;DHT22;40776;52.880;6.016;2022-09-09T13:55:17;20.60;99.90
54884;DHT22;40776;52.880;6.016;2022-09-09T14:00:24;20.00;99.90
54884;DHT22;40776;52.880;6.016;2022-09-09T14:02:50;19.90;99.90
54884;DHT22;40776;52.880;6.016;2022-09-09T14:05:16;20.10;99.90
54884;DHT22;40776;52.880;6.016;2022-09-09T14:07:43;20.10;99.90
54884;DHT22;40776;52.880;6.016;2022-09-09T14:12:34;19.80;99.90
54884;DHT22;40776;52.880;6.016;2022-09-09T14:15:02;19.90;99.90
54884;DHT22;40776;52.880;6.016;2022-09-09T14:19:55;19.40;99.90
54884;DHT22;40776;52.880;6.016;2022-09-09T14:22:21;19.50;99.90
54884;DHT22;40776;52.880;6.016;2022-09-09T14:24:47;19.90;99.90
54884;DHT22;40776;52.880;6.016;2022-09-09T14:27:13;19.80;99.90
54884;DHT22;40776;52.880;6.016;2022-09-09T14:32:04;19.40;99.90
54884;DHT22;40776;52.880;6.016;2022-09-09T14:34:30;18.90;99.90
54884;DHT22;40776;52.880;6.016;2022-09-09T14:36:57;18.50;99.90
54884;DHT22;40776;52.880;6.016;2022-09-09T14:39:23;18.50;99.90
54884;DHT22;40776;52.880;6.016;2022-09-09T14:46:41;17.70;99.90
54884;DHT22;40776;52.880;6.016;2022-09-09T14:49:08;17.50;99.90
54884;DHT22;40776;52.880;6.016;2022-09-09T14:51:33;17.30;99.90
54884;DHT22;40776;52.880;6.016;2022-09-09T14:56:27;17.40;99.90
54884;DHT22;40776;52.880;6.016;2022-09-09T14:58:53;17.60;99.90
54884;DHT22;40776;52.880;6.016;2022-09-09T15:01:20;17.90;99.90
54884;DHT22;40776;52.880;6.016;2022-09-09T15:03:50;17.90;99.90
54884;DHT22;40776;52.880;6.016;2022-09-09T15:06:16;18.30;99.90
54884;DHT22;40776;52.880;6.016;2022-09-09T15:08:43;18.70;99.90
54884;DHT22;40776;52.880;6.016;2022-09-09T15:11:09;18.80;99.90
54884;DHT22;40776;52.880;6.016;2022-09-09T15:16:09;19.00;99.90
54884;DHT22;40776;52.880;6.016;2022-09-09T15:18:35;19.00;99.90
54884;DHT22;40776;52.880;6.016;2022-09-09T15:21:04;19.30;99.90
54884;DHT22;40776;52.880;6.016;2022-09-09T15:23:33;19.50;99.90
54884;DHT22;40776;52.880;6.016;2022-09-09T15:25:59;19.30;99.90
54884;DHT22;40776;52.880;6.016;2022-09-09T15:33:17;20.60;99.90
54884;DHT22;40776;52.880;6.016;2022-09-09T15:35:43;20.70;99.90
54884;DHT22;40776;52.880;6.016;2022-09-09T15:38:09;21.60;99.90
54884;DHT22;40776;52.880;6.016;2022-09-09T15:40:34;21.30;99.90
54884;DHT22;40776;52.880;6.016;2022-09-09T15:43:00;20.80;99.90
54884;DHT22;40776;52.880;6.016;2022-09-09T15:45:26;20.50;99.90
54884;DHT22;40776;52.880;6.016;2022-09-09T15:47:52;20.10;99.90
54884;DHT22;40776;52.880;6.016;2022-09-09T15:50:17;19.70;99.90
54884;DHT22;40776;52.880;6.016;2022-09-09T15:57:35;19.60;99.90
54884;DHT22;40776;52.880;6.016;2022-09-09T16:00:03;19.70;99.90
54884;DHT22;40776;52.880;6.016;2022-09-09T16:02:29;20.10;99.90
54884;DHT22;40776;52.880;6.016;2022-09-09T16:04:56;20.20;99.90
54884;DHT22;40776;52.880;6.016;2022-09-09T16:07:22;20.20;99.90
54884;DHT22;40776;52.880;6.016;2022-09-09T16:09:48;20.50;99.90
54884;DHT22;40776;52.880;6.016;2022-09-09T16:12:15;20.20;99.90
54884;DHT22;40776;52.880;6.016;2022-09-09T16:19:33;19.50;99.90
54884;DHT22;40776;52.880;6.016;2022-09-09T16:22:00;19.10;99.90
54884;DHT22;40776;52.880;6.016;2022-09-09T16:24:25;19.20;99.90
54884;DHT22;40776;52.880;6.016;2022-09-09T16:26:52;19.20;99.90
54884;DHT22;40776;52.880;6.016;2022-09-09T16:31:44;19.00;99.90
54884;DHT22;40776;52.880;6.016;2022-09-09T16:34:10;18.60;99.90
54884;DHT22;40776;52.880;6.016;2022-09-09T16:36:36;18.70;99.90
54884;DHT22;40776;52.880;6.016;2022-09-09T16:39:06;18.80;99.90
54884;DHT22;40776;52.880;6.016;2022-09-09T16:44:04;18.60;99.90
54884;DHT22;40776;52.880;6.016;2022-09-09T16:48:56;18.30;99.90
54884;DHT22;40776;52.880;6.016;2022-09-09T16:51:23;18.00;99.90
54884;DHT22;40776;52.880;6.016;2022-09-09T16:53:50;18.60;99.90
54884;DHT22;40776;52.880;6.016;2022-09-09T16:56:17;18.30;99.90
54884;DHT22;40776;52.880;6.016;2022-09-09T16:58:43;18.60;99.90
54884;DHT22;40776;52.880;6.016;2022-09-09T17:03:40;18.10;99.90
54884;DHT22;40776;52.880;6.016;2022-09-09T17:06:08;18.30;99.90
54884;DHT22;40776;52.880;6.016;2022-09-09T17:08:34;18.10;99.90
54884;DHT22;40776;52.880;6.016;2022-09-09T17:13:25;18.30;99.90
54884;DHT22;40776;52.880;6.016;2022-09-09T17:15:50;17.90;99.90
54884;DHT22;40776;52.880;6.016;2022-09-09T17:18:16;18.20;99.90
54884;DHT22;40776;52.880;6.016;2022-09-09T17:20:42;18.00;99.90
54884;DHT22;40776;52.880;6.016;2022-09-09T17:25:35;18.30;99.90
54884;DHT22;40776;52.880;6.016;2022-09-09T17:28:01;18.20;99.90
54884;DHT22;40776;52.880;6.016;2022-09-09T17:32:55;17.90;99.90
54884;DHT22;40776;52.880;6.016;2022-09-09T17:35:21;17.70;99.90
54884;DHT22;40776;52.880;6.016;2022-09-09T17:37:46;17.80;99.90
54884;DHT22;40776;52.880;6.016;2022-09-09T17:40:12;17.80;99.90
54884;DHT22;40776;52.880;6.016;2022-09-09T17:42:38;17.70;99.90
54884;DHT22;40776;52.880;6.016;2022-09-09T17:49:56;17.70;99.90
54884;DHT22;40776;52.880;6.016;2022-09-09T17:52:21;17.60;99.90
54884;DHT22;40776;52.880;6.016;2022-09-09T17:59:42;17.50;99.90
54884;DHT22;40776;52.880;6.016;2022-09-09T18:04:33;17.50;99.90
54884;DHT22;40776;52.880;6.016;2022-09-09T18:07:01;17.30;99.90
54884;DHT22;40776;52.880;6.016;2022-09-09T18:11:54;17.30;99.90
54884;DHT22;40776;52.880;6.016;2022-09-09T18:14:21;17.40;99.90
54884;DHT22;40776;52.880;6.016;2022-09-09T18:16:47;17.40;99.90
54884;DHT22;40776;52.880;6.016;2022-09-09T18:26:31;16.70;99.90
54884;DHT22;40776;52.880;6.016;2022-09-09T18:28:59;17.20;99.90
54884;DHT22;40776;52.880;6.016;2022-09-09T18:33:51;17.40;99.90
54884;DHT22;40776;52.880;6.016;2022-09-09T18:36:28;17.10;99.90
54884;DHT22;40776;52.880;6.016;2022-09-09T18:38:55;17.10;99.90
54884;DHT22;40776;52.880;6.016;2022-09-09T18:48:40;17.00;99.90
54884;DHT22;40776;52.880;6.016;2022-09-09T18:55:59;16.90;99.90
54884;DHT22;40776;52.880;6.016;2022-09-09T18:58:26;16.90;99.90
54884;DHT22;40776;52.880;6.016;2022-09-09T19:00:52;16.60;99.90
54884;DHT22;40776;52.880;6.016;2022-09-09T19:03:18;16.50;99.90
54884;DHT22;40776;52.880;6.016;2022-09-09T19:05:44;16.80;99.90
54884;DHT22;40776;52.880;6.016;2022-09-09T19:08:09;16.90;99.90
54884;DHT22;40776;52.880;6.016;2022-09-09T19:10:35;16.70;99.90
54884;DHT22;40776;52.880;6.016;2022-09-09T19:13:01;16.40;99.90
54884;DHT22;40776;52.880;6.016;2022-09-09T19:15:26;16.90;99.90
54884;DHT22;40776;52.880;6.016;2022-09-09T19:17:54;16.30;99.90
54884;DHT22;40776;52.880;6.016;2022-09-09T19:20:21;16.40;99.90
54884;DHT22;40776;52.880;6.016;2022-09-09T19:25:14;16.20;99.90
54884;DHT22;40776;52.880;6.016;2022-09-09T19:27:41;16.30;99.90
54884;DHT22;40776;52.880;6.016;2022-09-09T19:30:07;16.20;99.90
54884;DHT22;40776;52.880;6.016;2022-09-09T19:35:02;16.50;99.90
54884;DHT22;40776;52.880;6.016;2022-09-09T19:44:46;16.10;99.90
54884;DHT22;40776;52.880;6.016;2022-09-09T19:47:11;16.00;99.90
54884;DHT22;40776;52.880;6.016;2022-09-09T19:49:39;16.00;99.90
54884;DHT22;40776;52.880;6.016;2022-09-09T19:54:31;16.20;99.90
54884;DHT22;40776;52.880;6.016;2022-09-09T19:56:57;16.00;99.90
54884;DHT22;40776;52.880;6.016;2022-09-09T19:59:23;16.20;99.90
54884;DHT22;40776;52.880;6.016;2022-09-09T20:01:49;16.00;99.90
54884;DHT22;40776;52.880;6.016;2022-09-09T20:04:15;15.80;99.90
54884;DHT22;40776;52.880;6.016;2022-09-09T20:06:42;15.90;99.90
54884;DHT22;40776;52.880;6.016;2022-09-09T20:09:11;16.10;99.90
54884;DHT22;40776;52.880;6.016;2022-09-09T20:11:39;16.00;99.90
54884;DHT22;40776;52.880;6.016;2022-09-09T20:16:30;15.80;99.90
54884;DHT22;40776;52.880;6.016;2022-09-09T20:18:57;16.20;99.90
54884;DHT22;40776;52.880;6.016;2022-09-09T20:21:24;16.10;99.90
54884;DHT22;40776;52.880;6.016;2022-09-09T20:26:20;16.20;99.90
54884;DHT22;40776;52.880;6.016;2022-09-09T20:28:47;15.70;99.90
54884;DHT22;40776;52.880;6.016;2022-09-09T20:31:16;15.60;99.90
54884;DHT22;40776;52.880;6.016;2022-09-09T20:38:34;15.90;99.90
54884;DHT22;40776;52.880;6.016;2022-09-09T20:45:53;16.00;99.90
54884;DHT22;40776;52.880;6.016;2022-09-09T20:48:21;16.20;99.90
54884;DHT22;40776;52.880;6.016;2022-09-09T20:50:47;15.80;99.90
54884;DHT22;40776;52.880;6.016;2022-09-09T20:53:13;15.50;99.90
54884;DHT22;40776;52.880;6.016;2022-09-09T20:58:05;15.70;99.90
54884;DHT22;40776;52.880;6.016;2022-09-09T21:00:31;15.50;99.90
54884;DHT22;40776;52.880;6.016;2022-09-09T21:02:57;15.80;99.90
54884;DHT22;40776;52.880;6.016;2022-09-09T21:05:24;15.70;99.90
54884;DHT22;40776;52.880;6.016;2022-09-09T21:10:15;15.60;99.90
54884;DHT22;40776;52.880;6.016;2022-09-09T21:12:42;15.70;99.90
54884;DHT22;40776;52.880;6.016;2022-09-09T21:17:33;15.20;99.90
54884;DHT22;40776;52.880;6.016;2022-09-09T21:19:59;15.50;99.90
54884;DHT22;40776;52.880;6.016;2022-09-09T21:22:26;15.70;99.90
54884;DHT22;40776;52.880;6.016;2022-09-09T21:24:51;15.30;99.90
54884;DHT22;40776;52.880;6.016;2022-09-09T21:27:17;15.40;99.90
54884;DHT22;40776;52.880;6.016;2022-09-09T21:29:43;15.40;99.90
54884;DHT22;40776;52.880;6.016;2022-09-09T21:32:08;15.50;99.90
54884;DHT22;40776;52.880;6.016;2022-09-09T21:34:34;15.00;99.90
54884;DHT22;40776;52.880;6.016;2022-09-09T21:36:59;15.60;99.90
54884;DHT22;40776;52.880;6.016;2022-09-09T21:39:26;15.40;99.90
54884;DHT22;40776;52.880;6.016;2022-09-09T21:51:37;15.10;99.90
54884;DHT22;40776;52.880;6.016;2022-09-09T21:54:02;15.10;99.90
54884;DHT22;40776;52.880;6.016;2022-09-09T21:58:57;15.30;99.90
54884;DHT22;40776;52.880;6.016;2022-09-09T22:03:50;15.10;99.90
54884;DHT22;40776;52.880;6.016;2022-09-09T22:06:16;15.20;99.90
54884;DHT22;40776;52.880;6.016;2022-09-09T22:08:45;15.00;99.90
54884;DHT22;40776;52.880;6.016;2022-09-09T22:13:38;15.10;99.90
54884;DHT22;40776;52.880;6.016;2022-09-09T22:16:05;15.10;99.90
54884;DHT22;40776;52.880;6.016;2022-09-09T22:18:30;14.70;99.90
54884;DHT22;40776;52.880;6.016;2022-09-09T22:20:56;14.80;99.90
54884;DHT22;40776;52.880;6.016;2022-09-09T22:23:22;15.00;99.90
54884;DHT22;40776;52.880;6.016;2022-09-09T22:25:48;15.10;99.90